Time;durP1;ratioP1;P1;durP2;ratioP2;P2;SDS_P1;SDS_P2;PMS_P1;PMS_P2;Temp;Humidity;BMP_temperature;BMP_pressure;BME280_temperature;BME280_humidity;BME280_pressure;Samples;Min_cycle;Max_cycle;Signal;HPM_P1;HPM_P2
2024/04/03 00:01:22;;;;;;;;;;;;;;;;;;5074069;28;19908;-64
2024/04/03 00:03:47;;;;;;;;;;;;;;;;;;5073664;28;19999;-64
2024/04/03 00:06:13;;;;;;;;;;;;;;;;;;5074444;28;19931;-64
2024/04/03 00:08:39;;;;;;;;;;;;;;;;;;5091890;28;19912;-64
2024/04/03 00:11:04;;;;;;;;;;;;;;;;;;5091413;28;19966;-64
2024/04/03 00:13:29;;;;;;;;;;;;;;;;;;5090356;28;19977;-64
2024/04/03 00:15:54;;;;;;;;;;;;;;;;;;5092556;28;19918;-63
2024/04/03 00:18:19;;;;;;;;;;;;;;;;;;5092416;28;19912;-64
2024/04/03 00:20:44;;;;;;;;;;;;;;;;;;5092350;28;19987;-64
2024/04/03 00:23:09;;;;;;;;;;;;;;;;;;5092182;28;19908;-64
2024/04/03 00:25:35;;;;;;;;;;;;;;;;;;5090661;28;19916;-64
2024/04/03 00:28:00;;;;;;;;;;;;;;;;;;5084284;28;19965;-64
2024/04/03 00:30:25;;;;;;;;;;;;;;;;;;5081372;28;20007;-64
2024/04/03 00:32:50;;;;;;;;;;;;;;;;;;5074647;28;19916;-64
2024/04/03 00:35:15;;;;;;;;;;;;;;;;;;5073012;28;19909;-64
2024/04/03 00:37:40;;;;;;;;;;;;;;;;;;5073346;28;20384;-64
2024/04/03 00:40:05;;;;;;;;;;;;;;;;;;5076327;28;20007;-64
2024/04/03 00:42:30;;;;;;;;;;;;;;;;;;5074685;28;20039;-64
2024/04/03 00:44:56;;;;;;;;;;;;;;;;;;5089759;28;19973;-64
2024/04/03 00:47:21;;;;;;;;;;;;;;;;;;5091472;28;19912;-64
2024/04/03 00:49:46;;;;;;;;;;;;;;;;;;5089472;28;20360;-64
2024/04/03 00:52:11;;;;;;;;;;;;;;;;;;5091625;28;19912;-64
2024/04/03 00:54:36;;;;;;;;;;;;;;;;;;5092032;28;20376;-64
2024/04/03 00:57:01;;;;;;;;;;;;;;;;;;5091483;28;19990;-64
2024/04/03 00:59:27;;;;;;;;;;;;;;;;;;5091408;28;20283;-63
2024/04/03 01:01:52;;;;;;;;;;;;;;;;;;5091188;28;19908;-64
2024/04/03 01:04:17;;;;;;;;;;;;;;;;;;5089378;28;19946;-64
2024/04/03 01:06:42;;;;;;;;;;;;;;;;;;5091463;28;19908;-64
2024/04/03 01:09:07;;;;;;;;;;;;;;;;;;5091344;28;19912;-64
2024/04/03 01:11:32;;;;;;;;;;;;;;;;;;5072751;28;19908;-64
2024/04/03 01:13:58;;;;;;;;;;;;;;;;;;5075871;28;20272;-64
2024/04/03 01:16:23;;;;;;;;;;;;;;;;;;5072506;28;19998;-64
2024/04/03 01:18:48;;;;;;;;;;;;;;;;;;5086495;28;19981;-64
2024/04/03 01:21:13;;;;;;;;;;;;;;;;;;5072973;28;20270;-64
2024/04/03 01:23:38;;;;;;;;;;;;;;;;;;5072499;28;19912;-64
2024/04/03 01:26:03;;;;;;;;;;;;;;;;;;5075004;28;19913;-64
2024/04/03 01:28:28;;;;;;;;;;;;;;;;;;5091293;28;19916;-64
2024/04/03 01:30:53;;;;;;;;;;;;;;;;;;5074606;28;19912;-64
2024/04/03 01:33:19;;;;;;;;;;;;;;;;;;5073043;28;19908;-64
2024/04/03 01:35:44;;;;;;;;;;;;;;;;;;5085358;28;20352;-64
2024/04/03 01:38:09;;;;;;;;;;;;;;;;;;5090735;28;20374;-64
2024/04/03 01:40:35;;;;;;;;;;;;;;;;;;5090872;28;19928;-64
2024/04/03 01:43:00;;;;;;;;;;;;;;;;;;5090917;28;19908;-64
2024/04/03 01:45:25;;;;;;;;;;;;;;;;;;5091011;28;20384;-64
2024/04/03 01:47:50;;;;;;;;;;;;;;;;;;5087569;28;19912;-64
2024/04/03 01:50:15;;;;;;;;;;;;;;;;;;5071795;28;20319;-64
2024/04/03 01:52:40;;;;;;;;;;;;;;;;;;5083324;28;19915;-64
2024/04/03 01:55:05;;;;;;;;;;;;;;;;;;5088327;28;19919;-64
2024/04/03 01:57:30;;;;;;;;;;;;;;;;;;5090759;28;19925;-64
2024/04/03 01:59:56;;;;;;;;;;;;;;;;;;5090866;28;20014;-60
2024/04/03 02:02:21;;;;;;;;;;;;;;;;;;5086348;28;19924;-62
2024/04/03 02:04:46;;;;;;;;;;;;;;;;;;5073207;28;19919;-61
2024/04/03 02:07:11;;;;;;;;;;;;;;;;;;5071521;28;20007;-61
2024/04/03 02:09:36;;;;;;;;;;;;;;;;;;5075734;28;19912;-61
2024/04/03 02:12:02;;;;;;;;;;;;;;;;;;5072737;28;19943;-61
2024/04/03 02:14:28;;;;;;;;;;;;;;;;;;5089292;28;19944;-62
2024/04/03 02:16:54;;;;;;;;;;;;;;;;;;5090247;28;19943;-61
2024/04/03 02:19:19;;;;;;;;;;;;;;;;;;5086248;28;19909;-60
2024/04/03 02:21:44;;;;;;;;;;;;;;;;;;5071628;28;19909;-60
2024/04/03 02:24:09;;;;;;;;;;;;;;;;;;5074991;28;19912;-62
2024/04/03 02:26:34;;;;;;;;;;;;;;;;;;5091355;28;19912;-61
2024/04/03 02:29:00;;;;;;;;;;;;;;;;;;5090404;28;19971;-61
2024/04/03 02:31:25;;;;;;;;;;;;;;;;;;5091313;28;19935;-61
2024/04/03 02:33:50;;;;;;;;;;;;;;;;;;5085705;28;19912;-61
2024/04/03 02:36:15;;;;;;;;;;;;;;;;;;5089304;28;19958;-61
2024/04/03 02:38:40;;;;;;;;;;;;;;;;;;5075434;28;19984;-60
2024/04/03 02:41:05;;;;;;;;;;;;;;;;;;5091505;28;20270;-61
2024/04/03 02:43:30;;;;;;;;;;;;;;;;;;5092922;28;20337;-61
2024/04/03 02:45:55;;;;;;;;;;;;;;;;;;5094971;28;19970;-62
2024/04/03 02:48:21;;;;;;;;;;;;;;;;;;5092120;28;20380;-62
2024/04/03 02:50:46;;;;;;;;;;;;;;;;;;5094596;28;19916;-60
2024/04/03 02:53:12;;;;;;;;;;;;;;;;;;5095076;28;19909;-61
2024/04/03 02:55:37;;;;;;;;;;;;;;;;;;5093818;28;19996;-62
2024/04/03 02:58:02;;;;;;;;;;;;;;;;;;5094547;28;19919;-61
2024/04/03 03:00:27;;;;;;;;;;;;;;;;;;5087679;28;19917;-61
2024/04/03 03:02:52;;;;;;;;;;;;;;;;;;5093215;28;19912;-60
2024/04/03 03:05:17;;;;;;;;;;;;;;;;;;5092642;28;19920;-62
2024/04/03 03:07:42;;;;;;;;;;;;;;;;;;5094791;28;19931;-61
2024/04/03 03:10:07;;;;;;;;;;;;;;;;;;5093465;28;19960;-64
2024/04/03 03:12:33;;;;;;;;;;;;;;;;;;5094195;28;19912;-64
2024/04/03 03:14:58;;;;;;;;;;;;;;;;;;5092615;28;19966;-64
2024/04/03 03:17:23;;;;;;;;;;;;;;;;;;5093650;28;19916;-64
2024/04/03 03:19:48;;;;;;;;;;;;;;;;;;5091830;28;19916;-64
2024/04/03 03:22:13;;;;;;;;;;;;;;;;;;5094037;28;19912;-64
2024/04/03 03:24:38;;;;;;;;;;;;;;;;;;5094103;28;19912;-64
2024/04/03 03:27:03;;;;;;;;;;;;;;;;;;5094294;28;19912;-64
2024/04/03 03:29:28;;;;;;;;;;;;;;;;;;5088190;28;19912;-64
2024/04/03 03:31:53;;;;;;;;;;;;;;;;;;5094382;28;19962;-64
2024/04/03 03:34:19;;;;;;;;;;;;;;;;;;5092823;28;19912;-64
2024/04/03 03:36:44;;;;;;;;;;;;;;;;;;5094475;28;19913;-64
2024/04/03 03:39:09;;;;;;;;;;;;;;;;;;5094350;28;19920;-64
2024/04/03 03:41:34;;;;;;;;;;;;;;;;;;5091908;28;19925;-64
2024/04/03 03:43:59;;;;;;;;;;;;;;;;;;5094080;28;19915;-64
2024/04/03 03:46:24;;;;;;;;;;;;;;;;;;5092069;28;20007;-64
2024/04/03 03:54:17;;;;;;;;;;;;;;;;;;5091089;28;19937;-64
2024/04/03 03:56:42;;;;;;;;;;;;;;;;;;5081442;28;19913;-64
2024/04/03 03:59:07;;;;;;;;;;;;;;;;;;5073904;28;19913;-64
2024/04/03 04:01:32;;;;;;;;;;;;;;;;;;5089866;28;20276;-64
2024/04/03 04:03:57;;;;;;;;;;;;;;;;;;5093726;28;19945;-64
2024/04/03 04:06:23;;;;;;;;;;;;;;;;;;5091527;28;19919;-64
2024/04/03 04:08:48;;;;;;;;;;;;;;;;;;5093422;28;19974;-64
2024/04/03 04:11:13;;;;;;;;;;;;;;;;;;5092631;28;19958;-64
2024/04/03 04:13:38;;;;;;;;;;;;;;;;;;5093743;28;19915;-64
2024/04/03 04:16:03;;;;;;;;;;;;;;;;;;5089730;28;19918;-64
2024/04/03 04:18:32;;;;;;;;;;;;;;;;;;5093020;28;20003;-64
2024/04/03 04:21:00;;;;;;;;;;;;;;;;;;5090220;28;19923;-61
2024/04/03 04:23:25;;;;;;;;;;;;;;;;;;5093452;28;20006;-61
2024/04/03 04:25:51;;;;;;;;;;;;;;;;;;5090053;28;20336;-61
2024/04/03 04:28:16;;;;;;;;;;;;;;;;;;5088817;28;19961;-61
2024/04/03 04:30:43;;;;;;;;;;;;;;;;;;5087828;28;20376;-61
2024/04/03 04:33:08;;;;;;;;;;;;;;;;;;5091941;28;19923;-61
2024/04/03 04:35:34;;;;;;;;;;;;;;;;;;5093189;28;19908;-61
2024/04/03 04:37:59;;;;;;;;;;;;;;;;;;5090308;28;19950;-61
2024/04/03 04:40:24;;;;;;;;;;;;;;;;;;5091920;28;19924;-61
2024/04/03 04:42:49;;;;;;;;;;;;;;;;;;5090552;28;19990;-61
2024/04/03 04:45:14;;;;;;;;;;;;;;;;;;5092792;28;20268;-61
2024/04/03 04:47:39;;;;;;;;;;;;;;;;;;5092665;28;20015;-61
2024/04/03 04:50:05;;;;;;;;;;;;;;;;;;5091477;28;20364;-62
2024/04/03 04:52:30;;;;;;;;;;;;;;;;;;5090103;28;19961;-60
2024/04/03 04:54:55;;;;;;;;;;;;;;;;;;5093010;28;19919;-61
2024/04/03 04:57:20;;;;;;;;;;;;;;;;;;5088043;28;19919;-62
2024/04/03 04:59:45;;;;;;;;;;;;;;;;;;5079406;28;19914;-61
2024/04/03 05:02:10;;;;;;;;;;;;;;;;;;5084301;28;20572;-61
2024/04/03 05:04:35;;;;;;;;;;;;;;;;;;5084723;28;19955;-61
2024/04/03 05:07:02;;;;;;;;;;;;;;;;;;5080723;28;19919;-61
2024/04/03 05:09:28;;;;;;;;;;;;;;;;;;5082842;28;19912;-61
2024/04/03 05:11:53;;;;;;;;;;;;;;;;;;5080947;28;19962;-61
2024/04/03 05:14:18;;;;;;;;;;;;;;;;;;5082841;28;19923;-60
2024/04/03 05:16:43;;;;;;;;;;;;;;;;;;5090467;28;20379;-61
2024/04/03 05:19:08;;;;;;;;;;;;;;;;;;5087871;28;20609;-60
2024/04/03 05:21:35;;;;;;;;;;;;;;;;;;5072787;28;20057;-61
2024/04/03 05:24:00;;;;;;;;;;;;;;;;;;5090241;28;19912;-60
2024/04/03 05:26:25;;;;;;;;;;;;;;;;;;5092223;28;19915;-61
2024/04/03 05:28:50;;;;;;;;;;;;;;;;;;5090035;28;19916;-61
2024/04/03 05:31:17;;;;;;;;;;;;;;;;;;5089742;28;19978;-64
2024/04/03 05:33:43;;;;;;;;;;;;;;;;;;5091385;28;20024;-64
2024/04/03 05:36:08;;;;;;;;;;;;;;;;;;5091695;28;20422;-64
2024/04/03 05:38:33;;;;;;;;;;;;;;;;;;5089341;28;19912;-64
2024/04/03 05:40:58;;;;;;;;;;;;;;;;;;5091047;28;20012;-64
2024/04/03 05:43:23;;;;;;;;;;;;;;;;;;5091860;28;19919;-64
2024/04/03 05:45:49;;;;;;;;;;;;;;;;;;5089570;28;19954;-65
2024/04/03 05:48:14;;;;;;;;;;;;;;;;;;5075991;28;19912;-65
2024/04/03 05:50:39;;;;;;;;;;;;;;;;;;5087094;28;20351;-64
2024/04/03 05:53:04;;;;;;;;;;;;;;;;;;5090927;28;19916;-64
2024/04/03 05:55:29;;;;;;;;;;;;;;;;;;5091289;28;19919;-65
2024/04/03 05:57:55;;;;;;;;;;;;;;;;;;5091296;28;19978;-65
2024/04/03 06:00:20;;;;;;;;;;;;;;;;;;5089082;28;19919;-65
2024/04/03 06:02:45;;;;;;;;;;;;;;;;;;5085740;28;19916;-66
2024/04/03 06:05:10;;;;;;;;;;;;;;;;;;5091781;28;19912;-66
2024/04/03 06:07:35;;;;;;;;;;;;;;;;;;5090611;28;19973;-66
2024/04/03 06:10:01;;;;;;;;;;;;;;;;;;5087874;28;19927;-66
2024/04/03 06:12:26;;;;;;;;;;;;;;;;;;5090987;28;20376;-65
2024/04/03 06:14:51;;;;;;;;;;;;;;;;;;5080281;28;19908;-66
2024/04/03 06:17:16;;;;;;;;;;;;;;;;;;5077290;28;19916;-66
2024/04/03 06:19:41;;;;;;;;;;;;;;;;;;5090304;28;20322;-66
2024/04/03 06:22:06;;;;;;;;;;;;;;;;;;5090972;28;19963;-66
2024/04/03 06:24:32;;;;;;;;;;;;;;;;;;5089240;28;19932;-66
2024/04/03 06:26:57;;;;;;;;;;;;;;;;;;5090540;28;19913;-65
2024/04/03 06:29:22;;;;;;;;;;;;;;;;;;5087894;28;19924;-66
2024/04/03 06:31:52;;;;;;;;;;;;;;;;;;5089903;28;19951;-66
2024/04/03 06:34:17;;;;;;;;;;;;;;;;;;5087536;28;19916;-66
2024/04/03 06:36:43;;;;;;;;;;;;;;;;;;5090769;28;19923;-66
2024/04/03 06:39:08;;;;;;;;;;;;;;;;;;5090478;28;19916;-66
2024/04/03 06:41:33;;;;;;;;;;;;;;;;;;5090486;28;19924;-64
2024/04/03 06:43:58;;;;;;;;;;;;;;;;;;5089778;28;19953;-65
2024/04/03 06:46:23;;;;;;;;;;;;;;;;;;5088396;28;20296;-64
2024/04/03 06:48:48;;;;;;;;;;;;;;;;;;5090972;28;19912;-63
2024/04/03 06:51:14;;;;;;;;;;;;;;;;;;5091350;28;20301;-63
2024/04/03 06:53:39;;;;;;;;;;;;;;;;;;5091146;28;19915;-64
2024/04/03 06:56:04;;;;;;;;;;;;;;;;;;5091246;28;19947;-63
2024/04/03 06:58:29;;;;;;;;;;;;;;;;;;5089549;28;19908;-64
2024/04/03 07:00:54;;;;;;;;;;;;;;;;;;5090801;28;19909;-64
2024/04/03 07:03:19;;;;;;;;;;;;;;;;;;5082523;28;19917;-64
2024/04/03 07:05:44;;;;;;;;;;;;;;;;;;5084583;28;19912;-64
2024/04/03 07:08:09;;;;;;;;;;;;;;;;;;5091155;28;19923;-64
2024/04/03 07:10:35;;;;;;;;;;;;;;;;;;5091100;28;19915;-63
2024/04/03 07:13:02;;;;;;;;;;;;;;;;;;5091047;28;20387;-63
2024/04/03 07:15:29;;;;;;;;;;;;;;;;;;5090910;28;19913;-63
2024/04/03 07:17:54;;;;;;;;;;;;;;;;;;5090930;28;19908;-63
2024/04/03 07:20:19;;;;;;;;;;;;;;;;;;5093048;28;19915;-63
2024/04/03 07:22:44;;;;;;;;;;;;;;;;;;5094295;28;19972;-63
2024/04/03 07:25:11;;;;;;;;;;;;;;;;;;5094474;28;20614;-64
2024/04/03 07:27:36;;;;;;;;;;;;;;;;;;5091047;28;19916;-64
2024/04/03 07:30:01;;;;;;;;;;;;;;;;;;5082986;28;19912;-64
2024/04/03 07:32:26;;;;;;;;;;;;;;;;;;5081039;28;19916;-64
2024/04/03 07:34:51;;;;;;;;;;;;;;;;;;5094033;28;19920;-64
2024/04/03 07:37:16;;;;;;;;;;;;;;;;;;5088663;28;19939;-64
2024/04/03 07:39:42;;;;;;;;;;;;;;;;;;5083933;28;20011;-64
2024/04/03 07:42:07;;;;;;;;;;;;;;;;;;5092072;28;20300;-64
2024/04/03 07:44:32;;;;;;;;;;;;;;;;;;5093488;28;19923;-64
2024/04/03 07:46:57;;;;;;;;;;;;;;;;;;5093762;28;19959;-64
2024/04/03 07:49:22;;;;;;;;;;;;;;;;;;5093923;28;19912;-64
2024/04/03 07:51:48;;;;;;;;;;;;;;;;;;5092771;28;19920;-67
2024/04/03 07:54:13;;;;;;;;;;;;;;;;;;5093380;28;19911;-66
2024/04/03 07:56:38;;;;;;;;;;;;;;;;;;5088888;28;19912;-66
2024/04/03 07:59:04;;;;;;;;;;;;;;;;;;5094105;28;20371;-66
2024/04/03 08:01:29;;;;;;;;;;;;;;;;;;5092559;28;19912;-66
2024/04/03 08:03:54;;;;;;;;;;;;;;;;;;5093671;28;20015;-66
2024/04/03 08:06:20;;;;;;;;;;;;;;;;;;5092235;28;19912;-66
2024/04/03 08:08:45;;;;;;;;;;;;;;;;;;5089095;28;19916;-66
2024/04/03 08:11:10;;;;;;;;;;;;;;;;;;5083452;28;19927;-66
2024/04/03 08:13:35;;;;;;;;;;;;;;;;;;5089192;28;19972;-66
2024/04/03 08:16:00;;;;;;;;;;;;;;;;;;5093040;28;19965;-66
2024/04/03 08:18:26;;;;;;;;;;;;;;;;;;5093203;28;20418;-66
2024/04/03 08:20:51;;;;;;;;;;;;;;;;;;5093449;28;19991;-66
2024/04/03 08:23:16;;;;;;;;;;;;;;;;;;5092010;28;20599;-66
2024/04/03 08:25:41;;;;;;;;;;;;;;;;;;5093596;28;20261;-67
2024/04/03 08:28:06;;;;;;;;;;;;;;;;;;5090649;28;19916;-67
2024/04/03 08:30:33;;;;;;;;;;;;;;;;;;5092616;28;19909;-66
2024/04/03 08:32:59;;;;;;;;;;;;;;;;;;5082203;28;19912;-66
2024/04/03 08:35:24;;;;;;;;;;;;;;;;;;5085333;28;19918;-66
2024/04/03 08:37:49;;;;;;;;;;;;;;;;;;5093075;28;19970;-67
2024/04/03 08:40:14;;;;;;;;;;;;;;;;;;5092965;28;19931;-67
2024/04/03 08:42:40;;;;;;;;;;;;;;;;;;5090475;28;19928;-67
2024/04/03 08:45:05;;;;;;;;;;;;;;;;;;5076175;28;19912;-67
2024/04/03 08:47:30;;;;;;;;;;;;;;;;;;5081349;28;19920;-67
2024/04/03 09:00:50;;;;;;;;;;;;;;;;;;5087959;28;19955;-65
2024/04/03 09:03:16;;;;;;;;;;;;;;;;;;5091456;28;19947;-65
2024/04/03 09:05:41;;;;;;;;;;;;;;;;;;5091546;28;19999;-65
2024/04/03 09:08:06;;;;;;;;;;;;;;;;;;5091995;28;20388;-65
2024/04/03 09:10:31;;;;;;;;;;;;;;;;;;5092800;28;20357;-65
2024/04/03 09:12:56;;;;;;;;;;;;;;;;;;5090288;28;19920;-65
2024/04/03 09:15:21;;;;;;;;;;;;;;;;;;5090633;28;19965;-65
2024/04/03 09:17:47;;;;;;;;;;;;;;;;;;5092171;28;20406;-65
2024/04/03 09:20:12;;;;;;;;;;;;;;;;;;5091830;28;20014;-65
2024/04/03 09:22:37;;;;;;;;;;;;;;;;;;5091275;28;19926;-65
2024/04/03 09:25:02;;;;;;;;;;;;;;;;;;5092649;28;19915;-65
2024/04/03 09:27:28;;;;;;;;;;;;;;;;;;5091997;28;20368;-65
2024/04/03 09:29:54;;;;;;;;;;;;;;;;;;5084301;28;19955;-64
2024/04/03 09:32:19;;;;;;;;;;;;;;;;;;5087683;28;19997;-65
2024/04/03 09:34:44;;;;;;;;;;;;;;;;;;5091862;28;19946;-65
2024/04/03 09:37:12;;;;;;;;;;;;;;;;;;5091545;28;19919;-64
2024/04/03 09:39:37;;;;;;;;;;;;;;;;;;5089851;28;19920;-64
2024/04/03 09:42:03;;;;;;;;;;;;;;;;;;5091702;28;20113;-65
2024/04/03 09:44:28;;;;;;;;;;;;;;;;;;5091665;28;19916;-65
2024/04/03 09:47:05;;;;;;;;;;;;;;;;;;5091833;28;19915;-65
2024/04/03 09:49:30;;;;;;;;;;;;;;;;;;5091985;28;20382;-65
2024/04/03 09:51:55;;;;;;;;;;;;;;;;;;5092046;28;19912;-64
2024/04/03 09:54:21;;;;;;;;;;;;;;;;;;5088158;28;20360;-65
2024/04/03 09:56:46;;;;;;;;;;;;;;;;;;5092032;28;20372;-65
2024/04/03 09:59:11;;;;;;;;;;;;;;;;;;5091208;28;20437;-65
2024/04/03 10:01:36;;;;;;;;;;;;;;;;;;5089467;28;19920;-65
2024/04/03 10:04:02;;;;;;;;;;;;;;;;;;5090524;28;20010;-65
2024/04/03 10:06:27;;;;;;;;;;;;;;;;;;5091896;28;19912;-65
2024/04/03 10:08:52;;;;;;;;;;;;;;;;;;5076505;28;19913;-65
2024/04/03 10:11:18;;;;;;;;;;;;;;;;;;5089816;28;19981;-66
2024/04/03 10:13:46;;;;;;;;;;;;;;;;;;5087712;28;19999;-67
2024/04/03 10:16:14;;;;;;;;;;;;;;;;;;5073359;28;20011;-66
2024/04/03 10:18:39;;;;;;;;;;;;;;;;;;5091146;28;19908;-66
2024/04/03 10:21:05;;;;;;;;;;;;;;;;;;5090910;28;19919;-67
2024/04/03 10:23:30;;;;;;;;;;;;;;;;;;5090001;28;19920;-66
2024/04/03 10:25:55;;;;;;;;;;;;;;;;;;5089796;28;19998;-67
2024/04/03 10:28:20;;;;;;;;;;;;;;;;;;5091579;28;19995;-67
2024/04/03 10:30:45;;;;;;;;;;;;;;;;;;5090873;28;19912;-66
2024/04/03 10:33:11;;;;;;;;;;;;;;;;;;5069818;28;19924;-66
2024/04/03 10:35:36;;;;;;;;;;;;;;;;;;5087086;28;19919;-66
2024/04/03 10:38:02;;;;;;;;;;;;;;;;;;5091613;28;19912;-66
2024/04/03 10:40:27;;;;;;;;;;;;;;;;;;5090474;28;20641;-66
2024/04/03 10:42:52;;;;;;;;;;;;;;;;;;5089011;28;19934;-67
2024/04/03 10:45:17;;;;;;;;;;;;;;;;;;5091326;28;19908;-66
2024/04/03 10:47:43;;;;;;;;;;;;;;;;;;5087168;28;19965;-66
2024/04/03 10:50:09;;;;;;;;;;;;;;;;;;5088995;28;19922;-66
2024/04/03 10:52:34;;;;;;;;;;;;;;;;;;5089991;28;19908;-66
2024/04/03 10:54:59;;;;;;;;;;;;;;;;;;5090889;28;19947;-66
2024/04/03 10:57:24;;;;;;;;;;;;;;;;;;5094971;28;19908;-66
2024/04/03 10:59:49;;;;;;;;;;;;;;;;;;5080666;28;19908;-66
2024/04/03 11:02:14;;;;;;;;;;;;;;;;;;5095142;28;19982;-66
2024/04/03 11:04:39;;;;;;;;;;;;;;;;;;5093950;28;19966;-67
2024/04/03 11:07:05;;;;;;;;;;;;;;;;;;5095054;28;19923;-66
2024/04/03 11:09:30;;;;;;;;;;;;;;;;;;5092405;28;19912;-66
2024/04/03 11:11:55;;;;;;;;;;;;;;;;;;5091680;28;19935;-66
2024/04/03 11:14:20;;;;;;;;;;;;;;;;;;5094014;28;19908;-66
2024/04/03 11:16:45;;;;;;;;;;;;;;;;;;5093908;28;19922;-66
2024/04/03 11:19:10;;;;;;;;;;;;;;;;;;5092664;28;19912;-66
2024/04/03 11:21:35;;;;;;;;;;;;;;;;;;5094104;28;20006;-66
2024/04/03 11:24:01;;;;;;;;;;;;;;;;;;5091054;28;19916;-66
2024/04/03 11:26:26;;;;;;;;;;;;;;;;;;5094065;28;19912;-66
2024/04/03 11:28:51;;;;;;;;;;;;;;;;;;5094235;28;19912;-66
2024/04/03 11:31:16;;;;;;;;;;;;;;;;;;5094254;28;19908;-66
2024/04/03 11:33:41;;;;;;;;;;;;;;;;;;5091657;28;19952;-66
2024/04/03 11:36:06;;;;;;;;;;;;;;;;;;5091753;28;19908;-66
2024/04/03 11:38:32;;;;;;;;;;;;;;;;;;5089985;28;19912;-66
2024/04/03 11:40:57;;;;;;;;;;;;;;;;;;5093569;28;19924;-66
2024/04/03 11:43:23;;;;;;;;;;;;;;;;;;5092332;28;19916;-66
2024/04/03 11:45:48;;;;;;;;;;;;;;;;;;5093536;28;19915;-66
2024/04/03 11:48:13;;;;;;;;;;;;;;;;;;5093046;28;19938;-65
2024/04/03 11:50:38;;;;;;;;;;;;;;;;;;5092045;28;19915;-65
2024/04/03 11:53:03;;;;;;;;;;;;;;;;;;5090136;28;19919;-66
2024/04/03 11:55:28;;;;;;;;;;;;;;;;;;5093499;28;20292;-66
2024/04/03 11:57:53;;;;;;;;;;;;;;;;;;5092939;28;19920;-66
2024/04/03 12:00:18;;;;;;;;;;;;;;;;;;5094066;28;19920;-66
2024/04/03 12:02:44;;;;;;;;;;;;;;;;;;5089939;28;20403;-66
2024/04/03 12:05:09;;;;;;;;;;;;;;;;;;5080495;28;19922;-66
2024/04/03 12:07:35;;;;;;;;;;;;;;;;;;5091850;28;19916;-66
2024/04/03 12:10:00;;;;;;;;;;;;;;;;;;5093277;28;20380;-66
2024/04/03 12:12:28;;;;;;;;;;;;;;;;;;5093924;28;19916;-66
2024/04/03 12:14:53;;;;;;;;;;;;;;;;;;5091604;28;19913;-66
2024/04/03 12:17:23;;;;;;;;;;;;;;;;;;5092466;28;19919;-66
2024/04/03 12:22:26;;;;;;;;;;;;;;;;;;5088303;28;19912;-66
2024/04/03 12:24:51;;;;;;;;;;;;;;;;;;5093289;28;19912;-66
2024/04/03 12:27:16;;;;;;;;;;;;;;;;;;5091270;28;19912;-66
2024/04/03 12:29:41;;;;;;;;;;;;;;;;;;5084514;28;19916;-66
2024/04/03 12:32:06;;;;;;;;;;;;;;;;;;5084959;28;19912;-61
2024/04/03 12:34:31;;;;;;;;;;;;;;;;;;5093534;28;20352;-61
2024/04/03 12:36:57;;;;;;;;;;;;;;;;;;5083989;28;20376;-60
2024/04/03 12:39:23;;;;;;;;;;;;;;;;;;5087693;28;20268;-60
2024/04/03 12:41:48;;;;;;;;;;;;;;;;;;5092883;28;19923;-61
2024/04/03 12:44:14;;;;;;;;;;;;;;;;;;5090524;28;20502;-61
2024/04/03 12:46:39;;;;;;;;;;;;;;;;;;5092857;28;19958;-61
2024/04/03 12:49:04;;;;;;;;;;;;;;;;;;5088643;28;19941;-61
2024/04/03 12:51:29;;;;;;;;;;;;;;;;;;5086313;28;19959;-61
2024/04/03 12:53:54;;;;;;;;;;;;;;;;;;5091890;28;20391;-61
2024/04/03 12:56:20;;;;;;;;;;;;;;;;;;5093134;28;20292;-61
2024/04/03 12:58:45;;;;;;;;;;;;;;;;;;5092316;28;19916;-60
2024/04/03 13:01:11;;;;;;;;;;;;;;;;;;5092116;28;19923;-60
2024/04/03 13:03:36;;;;;;;;;;;;;;;;;;5091246;28;19923;-60
2024/04/03 13:06:01;;;;;;;;;;;;;;;;;;5092517;28;19958;-61
2024/04/03 13:08:27;;;;;;;;;;;;;;;;;;5091255;28;19927;-61
2024/04/03 13:10:52;;;;;;;;;;;;;;;;;;5092467;28;19954;-61
2024/04/03 13:13:17;;;;;;;;;;;;;;;;;;5089056;28;19935;-61
2024/04/03 13:15:43;;;;;;;;;;;;;;;;;;5090425;28;19919;-61
2024/04/03 13:18:09;;;;;;;;;;;;;;;;;;5091460;28;19912;-60
2024/04/03 13:20:35;;;;;;;;;;;;;;;;;;5084878;28;20373;-61
2024/04/03 13:23:00;;;;;;;;;;;;;;;;;;5081669;28;19949;-60
2024/04/03 13:25:25;;;;;;;;;;;;;;;;;;5091683;28;19912;-61
2024/04/03 13:27:50;;;;;;;;;;;;;;;;;;5091660;28;20409;-60
2024/04/03 13:30:16;;;;;;;;;;;;;;;;;;5091488;28;19912;-61
2024/04/03 13:32:41;;;;;;;;;;;;;;;;;;5089931;28;19951;-60
2024/04/03 13:35:06;;;;;;;;;;;;;;;;;;5091090;28;19962;-61
2024/04/03 13:37:32;;;;;;;;;;;;;;;;;;5089268;28;19919;-60
2024/04/03 13:39:57;;;;;;;;;;;;;;;;;;5089971;28;19942;-60
2024/04/03 13:42:22;;;;;;;;;;;;;;;;;;5088776;28;20446;-64
2024/04/03 13:44:47;;;;;;;;;;;;;;;;;;5088738;28;20026;-64
2024/04/03 13:47:13;;;;;;;;;;;;;;;;;;5089785;28;19963;-64
2024/04/03 13:49:39;;;;;;;;;;;;;;;;;;5091577;28;19912;-64
2024/04/03 13:52:05;;;;;;;;;;;;;;;;;;5091324;28;19919;-64
2024/04/03 13:54:30;;;;;;;;;;;;;;;;;;5088940;28;19916;-64
2024/04/03 13:56:55;;;;;;;;;;;;;;;;;;5089734;28;20003;-64
2024/04/03 13:59:22;;;;;;;;;;;;;;;;;;5089084;28;19912;-64
2024/04/03 14:01:47;;;;;;;;;;;;;;;;;;5091484;28;19908;-64
2024/04/03 14:04:13;;;;;;;;;;;;;;;;;;5089501;28;19913;-64
2024/04/03 14:06:38;;;;;;;;;;;;;;;;;;5091890;28;19908;-63
2024/04/03 14:09:03;;;;;;;;;;;;;;;;;;5088663;28;19916;-64
2024/04/03 14:11:28;;;;;;;;;;;;;;;;;;5091481;28;19908;-64
2024/04/03 14:13:55;;;;;;;;;;;;;;;;;;5091432;28;19934;-64
2024/04/03 14:16:20;;;;;;;;;;;;;;;;;;5089303;28;19923;-64
2024/04/03 14:18:46;;;;;;;;;;;;;;;;;;5090833;28;19912;-63
2024/04/03 14:21:11;;;;;;;;;;;;;;;;;;5091150;28;19955;-63
2024/04/03 14:23:36;;;;;;;;;;;;;;;;;;5091694;28;19923;-63
2024/04/03 14:26:01;;;;;;;;;;;;;;;;;;5089810;28;20011;-64
2024/04/03 14:28:27;;;;;;;;;;;;;;;;;;5091420;28;19912;-63
2024/04/03 14:30:53;;;;;;;;;;;;;;;;;;5084424;28;19947;-64
2024/04/03 14:33:18;;;;;;;;;;;;;;;;;;5079970;28;19951;-63
2024/04/03 14:35:43;;;;;;;;;;;;;;;;;;5078914;28;19913;-63
2024/04/03 14:38:08;;;;;;;;;;;;;;;;;;5076502;28;19977;-64
2024/04/03 14:40:33;;;;;;;;;;;;;;;;;;5086587;28;19986;-64
2024/04/03 14:42:59;;;;;;;;;;;;;;;;;;5083654;28;19927;-63
2024/04/03 14:45:24;;;;;;;;;;;;;;;;;;5077099;28;19918;-64
2024/04/03 14:47:49;;;;;;;;;;;;;;;;;;5079863;28;20422;-64
2024/04/03 14:50:15;;;;;;;;;;;;;;;;;;5083686;28;20484;-64
2024/04/03 14:52:40;;;;;;;;;;;;;;;;;;5077908;28;20391;-64
2024/04/03 14:55:05;;;;;;;;;;;;;;;;;;5084581;28;20443;-63
2024/04/03 14:57:30;;;;;;;;;;;;;;;;;;5086379;28;19912;-63
2024/04/03 14:59:56;;;;;;;;;;;;;;;;;;5085019;28;19919;-63
2024/04/03 15:02:21;;;;;;;;;;;;;;;;;;5085713;28;19915;-64
2024/04/03 15:04:46;;;;;;;;;;;;;;;;;;5085949;28;19943;-63
2024/04/03 15:07:11;;;;;;;;;;;;;;;;;;5085667;28;19913;-64
2024/04/03 15:09:37;;;;;;;;;;;;;;;;;;5078025;28;20265;-63
2024/04/03 15:12:05;;;;;;;;;;;;;;;;;;5078013;28;19936;-63
2024/04/03 15:14:30;;;;;;;;;;;;;;;;;;5089586;28;19912;-63
2024/04/03 15:16:55;;;;;;;;;;;;;;;;;;5083977;28;20429;-63
2024/04/03 15:19:20;;;;;;;;;;;;;;;;;;5087062;28;19978;-64
2024/04/03 15:21:46;;;;;;;;;;;;;;;;;;5083113;28;19966;-64
2024/04/03 15:24:11;;;;;;;;;;;;;;;;;;5080999;28;20345;-63
2024/04/03 15:26:36;;;;;;;;;;;;;;;;;;5084798;28;19926;-63
2024/04/03 15:29:01;;;;;;;;;;;;;;;;;;5079841;28;19928;-63
2024/04/03 15:31:26;;;;;;;;;;;;;;;;;;5081759;28;19916;-63
2024/04/03 15:33:51;;;;;;;;;;;;;;;;;;5076008;28;20280;-63
2024/04/03 15:36:16;;;;;;;;;;;;;;;;;;5088860;28;20292;-63
2024/04/03 15:38:42;;;;;;;;;;;;;;;;;;5086374;28;19912;-63
2024/04/03 15:41:07;;;;;;;;;;;;;;;;;;5086905;28;19928;-63
2024/04/03 15:43:32;;;;;;;;;;;;;;;;;;5090288;28;19965;-63
2024/04/03 15:45:57;;;;;;;;;;;;;;;;;;5086743;28;19983;-63
2024/04/03 15:48:22;;;;;;;;;;;;;;;;;;5093973;28;20029;-63
2024/04/03 15:50:47;;;;;;;;;;;;;;;;;;5083840;28;19916;-63
2024/04/03 15:53:13;;;;;;;;;;;;;;;;;;5092561;28;20026;-63
2024/04/03 15:55:40;;;;;;;;;;;;;;;;;;5079854;28;19966;-63
2024/04/03 15:58:05;;;;;;;;;;;;;;;;;;5088717;28;19913;-63
2024/04/03 16:00:30;;;;;;;;;;;;;;;;;;5087554;28;19919;-63
2024/04/03 16:02:55;;;;;;;;;;;;;;;;;;5083174;28;19965;-62
2024/04/03 16:05:20;;;;;;;;;;;;;;;;;;5084391;28;19914;-62
2024/04/03 16:07:46;;;;;;;;;;;;;;;;;;5083593;28;20370;-61
2024/04/03 16:10:11;;;;;;;;;;;;;;;;;;5080671;28;19912;-62
2024/04/03 16:12:37;;;;;;;;;;;;;;;;;;5081982;28;19923;-61
2024/04/03 16:15:02;;;;;;;;;;;;;;;;;;5079143;28;19966;-62
2024/04/03 16:17:27;;;;;;;;;;;;;;;;;;5078918;28;19962;-62
2024/04/03 16:19:52;;;;;;;;;;;;;;;;;;5082974;28;19926;-61
2024/04/03 16:22:17;;;;;;;;;;;;;;;;;;5084598;28;20376;-61
2024/04/03 16:24:42;;;;;;;;;;;;;;;;;;5086191;28;19912;-59
2024/04/03 16:27:07;;;;;;;;;;;;;;;;;;5085831;28;19912;-60
2024/04/03 16:29:33;;;;;;;;;;;;;;;;;;5083344;28;19967;-59
2024/04/03 16:31:58;;;;;;;;;;;;;;;;;;5077929;28;19943;-59
2024/04/03 16:34:23;;;;;;;;;;;;;;;;;;5084120;28;19961;-60
2024/04/03 16:36:48;;;;;;;;;;;;;;;;;;5082758;28;20421;-60
2024/04/03 16:39:14;;;;;;;;;;;;;;;;;;5083646;28;19923;-60
2024/04/03 16:41:39;;;;;;;;;;;;;;;;;;5081535;28;20300;-60
2024/04/03 16:44:04;;;;;;;;;;;;;;;;;;5082771;28;20003;-60
2024/04/03 16:46:29;;;;;;;;;;;;;;;;;;5082308;28;19958;-60
2024/04/03 16:48:54;;;;;;;;;;;;;;;;;;5081192;28;19966;-60
2024/04/03 16:51:19;;;;;;;;;;;;;;;;;;5080526;28;19927;-60